createdAt,value
2017-12-21T00:00:15.366Z,42.67
2017-12-21T00:02:43.565Z,46.60
2017-12-21T00:05:11.783Z,41.30
2017-12-21T00:07:40.750Z,38.73
2017-12-21T00:10:08.958Z,42.33
2017-12-21T00:12:36.366Z,46.23
2017-12-21T00:15:03.810Z,45.83
2017-12-21T00:17:32.020Z,43.87
2017-12-21T00:19:59.418Z,48.97
2017-12-21T00:22:39.616Z,39.17
2017-12-21T00:25:07.026Z,43.53
2017-12-21T00:27:34.438Z,44.07
2017-12-21T00:30:02.610Z,40.60
2017-12-21T00:32:30.822Z,47.17
2017-12-21T00:34:58.994Z,42.77
2017-12-21T00:37:27.225Z,40.90
2017-12-21T00:39:54.638Z,41.73
2017-12-21T00:42:22.812Z,41.20
2017-12-21T00:44:50.220Z,43.47
2017-12-21T00:47:17.688Z,43.63
2017-12-21T00:49:45.098Z,46.03
2017-12-21T00:52:12.514Z,40.60
2017-12-21T00:54:40.732Z,43.53
2017-12-21T00:57:08.201Z,45.33
2017-12-21T00:59:35.593Z,45.90
2017-12-21T01:02:03.058Z,46.53
2017-12-21T01:04:30.421Z,42.03
2017-12-21T01:06:57.849Z,43.07
2017-12-21T01:09:25.325Z,45.97
2017-12-21T01:11:52.744Z,40.40
2017-12-21T01:14:20.273Z,42.67
2017-12-21T01:16:47.708Z,45.10
2017-12-21T01:19:15.919Z,42.13
2017-12-21T01:21:43.337Z,47.40
2017-12-21T01:24:11.513Z,41.83
2017-12-21T01:26:38.968Z,43.03
2017-12-21T01:29:06.379Z,43.67
2017-12-21T01:31:33.786Z,43.43
2017-12-21T01:34:01.250Z,38.67
2017-12-21T01:36:28.672Z,46.20
2017-12-21T01:38:56.177Z,37.97
2017-12-21T01:41:23.615Z,50.93
2017-12-21T01:43:51.070Z,40.27
2017-12-21T01:46:18.478Z,40.77
2017-12-21T01:48:45.897Z,44.97
2017-12-21T01:51:13.329Z,43.40
2017-12-21T01:53:40.798Z,39.20
2017-12-21T01:56:08.289Z,50.13
2017-12-21T01:58:35.699Z,38.53
2017-12-21T02:01:03.874Z,41.40
2017-12-21T02:03:31.300Z,38.97
2017-12-21T02:05:58.745Z,48.27
2017-12-21T02:08:26.163Z,40.33
2017-12-21T02:10:53.592Z,39.07
2017-12-21T02:13:21.020Z,48.50
2017-12-21T02:15:49.215Z,40.37
2017-12-21T02:18:17.398Z,41.50
2017-12-21T02:20:45.582Z,40.60
2017-12-21T02:23:13.762Z,42.73
2017-12-21T02:25:41.168Z,46.83
2017-12-21T02:28:08.630Z,51.57
2017-12-21T02:30:36.111Z,40.47
2017-12-21T02:33:03.573Z,51.17
2017-12-21T02:35:31.742Z,42.70
2017-12-21T02:37:59.200Z,40.70
2017-12-21T02:40:27.375Z,45.50
2017-12-21T02:42:54.883Z,42.53
2017-12-21T02:45:22.385Z,40.63
2017-12-21T02:47:49.805Z,42.40
2017-12-21T02:50:17.304Z,46.23
2017-12-21T02:52:44.706Z,48.03
2017-12-21T02:55:12.231Z,47.30
2017-12-21T02:57:39.703Z,45.17
2017-12-21T03:00:07.097Z,42.50
2017-12-21T03:02:34.511Z,38.97
2017-12-21T03:05:02.006Z,43.07
2017-12-21T03:07:29.421Z,40.57
2017-12-21T03:09:56.957Z,36.50
2017-12-21T03:12:24.358Z,37.90
2017-12-21T03:14:51.778Z,35.23
2017-12-21T03:17:19.242Z,36.37
2017-12-21T03:19:46.665Z,38.17
2017-12-21T03:22:14.184Z,40.87
2017-12-21T03:24:41.662Z,37.37
2017-12-21T03:27:09.086Z,35.03
2017-12-21T03:29:37.316Z,33.30
2017-12-21T03:32:04.726Z,33.77
2017-12-21T03:34:32.145Z,33.23
2017-12-21T03:36:59.614Z,33.93
2017-12-21T03:39:27.054Z,32.63
2017-12-21T03:41:55.227Z,33.20
2017-12-21T03:44:22.647Z,34.83
2017-12-21T03:46:50.061Z,34.70
2017-12-21T03:49:17.572Z,36.27
2017-12-21T03:51:45.044Z,33.63
2017-12-21T03:54:12.453Z,34.77
2017-12-21T03:56:39.881Z,34.70
2017-12-21T03:59:07.346Z,34.03
2017-12-21T04:01:34.778Z,34.53
2017-12-21T04:04:02.975Z,32.20
2017-12-21T04:06:31.157Z,29.40
2017-12-21T04:08:59.334Z,30.20
2017-12-21T04:11:27.524Z,30.07
2017-12-21T04:13:54.955Z,25.13
2017-12-21T04:16:22.417Z,26.33
2017-12-21T04:18:49.858Z,28.93
2017-12-21T04:21:17.321Z,22.60
2017-12-21T04:23:44.794Z,24.10
2017-12-21T04:26:12.222Z,23.37
2017-12-21T04:28:39.646Z,20.73
2017-12-21T04:31:07.055Z,21.30
2017-12-21T04:33:34.486Z,19.33
2017-12-21T04:36:01.906Z,22.50
2017-12-21T04:38:30.090Z,22.73
2017-12-21T04:40:58.312Z,20.20
2017-12-21T04:43:25.750Z,17.67
2017-12-21T04:48:20.155Z,16.23
2017-12-21T04:50:47.554Z,16.97
2017-12-21T04:53:15.730Z,19.50
2017-12-21T04:55:43.137Z,23.50
2017-12-21T04:58:10.598Z,15.50
2017-12-21T05:00:38.075Z,18.10
2017-12-21T05:03:05.517Z,16.13
2017-12-21T05:05:33.711Z,21.13
2017-12-21T05:08:01.146Z,21.67
2017-12-21T05:10:29.336Z,17.43
2017-12-21T05:12:57.509Z,15.60
2017-12-21T05:15:24.958Z,18.57
2017-12-21T05:17:52.374Z,18.27
2017-12-21T05:20:20.586Z,20.40
2017-12-21T05:22:48.045Z,18.50
2017-12-21T05:25:15.487Z,15.10
2017-12-21T05:27:43.707Z,14.57
2017-12-21T05:30:11.134Z,15.77
2017-12-21T05:32:39.315Z,18.77
2017-12-21T05:35:06.748Z,14.70
2017-12-21T05:37:34.149Z,15.43
2017-12-21T05:40:01.574Z,16.30
2017-12-21T05:42:29.021Z,16.53
2017-12-21T05:44:56.807Z,19.57
2017-12-21T05:47:24.392Z,15.97
2017-12-21T05:49:51.908Z,16.20
2017-12-21T05:52:19.575Z,18.37
2017-12-21T05:54:47.773Z,16.40
2017-12-21T05:57:15.211Z,20.77
2017-12-21T05:59:42.647Z,17.20
2017-12-21T06:02:10.108Z,17.37
2017-12-21T06:04:37.588Z,20.30
2017-12-21T06:07:04.997Z,16.93
2017-12-21T06:09:33.950Z,20.30
2017-12-21T06:12:01.414Z,23.83
2017-12-21T06:14:28.842Z,26.97
2017-12-21T06:16:56.272Z,20.03
2017-12-21T06:19:23.832Z,20.90
2017-12-21T06:21:51.303Z,23.23
2017-12-21T06:24:18.774Z,21.23
2017-12-21T06:26:46.183Z,25.13
2017-12-21T06:29:13.602Z,22.60
2017-12-21T06:31:41.028Z,24.77
2017-12-21T06:34:08.450Z,21.70
2017-12-21T06:36:35.857Z,24.77
2017-12-21T06:39:03.295Z,23.63
2017-12-21T06:41:30.750Z,25.63
2017-12-21T06:43:58.176Z,21.63
2017-12-21T06:46:26.370Z,21.50
2017-12-21T06:48:54.562Z,24.00
2017-12-21T06:51:22.827Z,23.00
2017-12-21T06:53:50.194Z,26.30
2017-12-21T06:56:17.616Z,22.17
2017-12-21T06:58:45.090Z,22.27
2017-12-21T07:01:12.521Z,22.90
2017-12-21T07:03:39.950Z,21.60
2017-12-21T07:06:07.372Z,16.87
2017-12-21T07:08:34.793Z,21.27
2017-12-21T07:11:02.313Z,19.53
2017-12-21T07:13:29.726Z,18.40
2017-12-21T07:15:57.183Z,19.30
2017-12-21T07:18:24.590Z,19.83
2017-12-21T07:20:52.762Z,19.50
2017-12-21T07:23:20.215Z,19.37
2017-12-21T07:25:47.766Z,20.60
2017-12-21T07:28:15.146Z,19.07
2017-12-21T07:30:42.582Z,16.73
2017-12-21T07:33:09.996Z,19.27
2017-12-21T07:35:37.517Z,19.10
2017-12-21T07:38:04.930Z,19.70
2017-12-21T07:40:32.362Z,17.97
2017-12-21T07:42:59.769Z,19.00
2017-12-21T07:45:27.180Z,18.50
2017-12-21T07:47:55.379Z,16.93
2017-12-21T07:50:22.782Z,22.20
2017-12-21T07:52:50.264Z,20.57
2017-12-21T07:55:17.676Z,21.70
2017-12-21T07:57:45.110Z,16.60
2017-12-21T08:00:12.533Z,19.83
2017-12-21T08:02:39.990Z,15.50
2017-12-21T08:05:07.457Z,18.57
2017-12-21T08:07:35.675Z,15.87
2017-12-21T08:10:03.113Z,16.90
2017-12-21T08:12:31.282Z,18.33
2017-12-21T08:14:59.458Z,17.03
2017-12-21T08:17:27.650Z,17.63
2017-12-21T08:19:55.826Z,17.90
2017-12-21T08:22:24.062Z,18.17
2017-12-21T08:24:51.547Z,17.00
2017-12-21T08:27:18.990Z,18.10
2017-12-21T08:29:46.398Z,17.53
2017-12-21T08:32:13.804Z,14.97
2017-12-21T08:34:41.265Z,17.20
2017-12-21T08:37:09.460Z,15.70
2017-12-21T08:39:36.961Z,14.67
2017-12-21T08:42:04.370Z,15.80
2017-12-21T08:44:31.818Z,14.43
2017-12-21T08:46:59.281Z,15.83
2017-12-21T08:49:26.697Z,15.07
2017-12-21T08:51:54.106Z,18.00
2017-12-21T08:54:21.514Z,15.13
2017-12-21T08:56:49.839Z,15.00
2017-12-21T08:59:17.989Z,13.93
2017-12-21T09:01:46.169Z,14.57
2017-12-21T09:04:13.602Z,15.13
2017-12-21T09:06:41.027Z,14.00
2017-12-21T09:09:09.326Z,14.30
2017-12-21T09:11:36.765Z,15.10
2017-12-21T09:14:04.166Z,13.23
2017-12-21T09:16:31.642Z,10.83
2017-12-21T09:18:59.102Z,11.60
2017-12-21T09:21:26.531Z,10.93
2017-12-21T09:23:53.950Z,14.83
2017-12-21T09:26:21.361Z,11.00
2017-12-21T09:28:48.806Z,13.20
2017-12-21T09:31:16.259Z,14.67
2017-12-21T09:33:43.674Z,13.37
2017-12-21T09:36:11.105Z,11.00
2017-12-21T09:38:38.652Z,12.00
2017-12-21T09:41:06.810Z,14.93
2017-12-21T09:43:35.013Z,16.07
2017-12-21T09:46:03.173Z,11.87
2017-12-21T09:48:31.406Z,13.13
2017-12-21T09:50:58.823Z,14.30
2017-12-21T09:53:26.259Z,11.80
2017-12-21T09:55:53.653Z,11.43
2017-12-21T09:58:21.066Z,15.23
2017-12-21T10:00:48.482Z,12.90
2017-12-21T10:03:15.890Z,13.00
2017-12-21T10:05:44.204Z,11.10
2017-12-21T10:08:12.356Z,12.80
2017-12-21T10:10:40.598Z,13.50
2017-12-21T10:13:08.002Z,12.90
2017-12-21T10:15:35.422Z,14.70
2017-12-21T10:18:02.871Z,17.00
2017-12-21T10:20:30.278Z,14.87
2017-12-21T10:22:57.690Z,13.97
2017-12-21T10:25:25.900Z,15.07
2017-12-21T10:27:53.310Z,17.70
2017-12-21T10:30:20.723Z,19.83
2017-12-21T10:32:48.198Z,16.53
2017-12-21T10:35:15.626Z,15.70
2017-12-21T10:37:43.077Z,16.97
2017-12-21T10:40:10.493Z,18.47
2017-12-21T10:42:37.894Z,19.40
2017-12-21T10:45:05.327Z,16.63
2017-12-21T10:47:32.812Z,16.80
2017-12-21T10:50:00.229Z,17.80
2017-12-21T10:52:27.753Z,14.60
2017-12-21T10:54:55.177Z,18.27
2017-12-21T10:57:23.355Z,18.90
2017-12-21T10:59:50.787Z,15.00
2017-12-21T11:02:18.225Z,14.57
2017-12-21T11:04:46.391Z,17.70
2017-12-21T11:07:14.585Z,15.20
2017-12-21T11:09:42.755Z,14.43
2017-12-21T11:12:10.177Z,13.67
2017-12-21T11:14:37.598Z,13.03
2017-12-21T11:17:05.014Z,15.27
2017-12-21T11:19:32.422Z,12.20
2017-12-21T11:21:59.864Z,17.33
2017-12-21T11:24:27.283Z,13.33
2017-12-21T11:26:54.794Z,11.73
2017-12-21T11:29:22.261Z,12.90
2017-12-21T11:31:49.666Z,12.30
2017-12-21T11:34:17.094Z,11.33
2017-12-21T11:36:44.512Z,8.30
2017-12-21T11:39:11.926Z,10.73
2017-12-21T11:41:39.322Z,11.43
2017-12-21T11:44:06.752Z,10.83
2017-12-21T11:46:34.229Z,11.27
2017-12-21T11:49:01.698Z,9.63
2017-12-21T11:51:29.166Z,8.87
2017-12-21T11:53:56.643Z,16.40
2017-12-21T11:56:24.799Z,9.30
2017-12-21T11:58:52.966Z,13.43
2017-12-21T12:01:20.502Z,9.30
2017-12-21T12:03:47.976Z,12.10
2017-12-21T12:06:15.401Z,9.73
2017-12-21T12:08:43.601Z,12.23
2017-12-21T12:11:11.026Z,11.30
2017-12-21T12:13:38.435Z,12.73
2017-12-21T12:16:05.911Z,9.73
2017-12-21T12:18:33.320Z,12.50
2017-12-21T12:21:00.747Z,11.50
2017-12-21T12:23:28.145Z,14.60
2017-12-21T12:25:55.568Z,14.03
2017-12-21T12:28:23.047Z,17.20
2017-12-21T12:30:50.452Z,19.10
2017-12-21T12:33:17.878Z,16.60
2017-12-21T12:35:45.294Z,41.63
2017-12-21T12:38:12.726Z,18.40
2017-12-21T12:40:40.136Z,15.87
2017-12-21T12:43:07.548Z,19.03
2017-12-21T12:45:35.134Z,23.40
2017-12-21T12:48:02.523Z,22.73
2017-12-21T12:50:29.951Z,24.07
2017-12-21T12:52:58.125Z,35.20
2017-12-21T12:55:26.352Z,24.23
2017-12-21T12:57:54.494Z,26.07
2017-12-21T13:00:22.730Z,25.13
2017-12-21T13:02:50.165Z,29.30
2017-12-21T13:05:18.562Z,28.83
2017-12-21T13:07:46.045Z,31.23
2017-12-21T13:10:13.449Z,28.90
2017-12-21T13:12:41.705Z,29.53
2017-12-21T13:15:10.120Z,28.90
2017-12-21T13:17:37.552Z,27.10
2017-12-21T13:20:05.012Z,25.50
2017-12-21T13:22:32.422Z,31.33
2017-12-21T13:24:59.858Z,31.87
2017-12-21T13:27:28.034Z,35.40
2017-12-21T13:29:55.467Z,38.93
2017-12-21T13:32:23.087Z,36.00
2017-12-21T13:34:51.241Z,33.20
2017-12-21T13:37:19.421Z,35.20
2017-12-21T13:39:47.746Z,29.07
2017-12-21T13:42:15.951Z,30.43
2017-12-21T13:44:43.355Z,34.27
2017-12-21T13:47:10.790Z,37.43
2017-12-21T13:49:38.228Z,29.43
2017-12-21T13:52:05.702Z,37.20
2017-12-21T13:54:33.128Z,32.57
2017-12-21T13:57:00.525Z,30.90
2017-12-21T13:59:28.016Z,26.37
2017-12-21T14:01:56.177Z,29.30
2017-12-21T14:04:24.362Z,24.23
2017-12-21T14:06:52.582Z,24.90
2017-12-21T14:09:19.987Z,20.97
2017-12-21T14:11:47.394Z,21.97
2017-12-21T14:14:14.822Z,22.40
2017-12-21T14:16:42.354Z,20.00
2017-12-21T14:19:09.780Z,22.60
2017-12-21T14:21:37.957Z,23.80
2017-12-21T14:24:06.133Z,19.57
2017-12-21T14:26:33.577Z,20.80
2017-12-21T14:29:00.993Z,19.50
2017-12-21T14:31:29.200Z,23.97
2017-12-21T14:33:57.391Z,19.70
2017-12-21T14:36:24.859Z,20.73
2017-12-21T14:38:53.022Z,19.00
2017-12-21T14:41:20.528Z,20.30
2017-12-21T14:43:47.951Z,16.87
2017-12-21T14:46:16.167Z,19.37
2017-12-21T14:48:43.565Z,22.87
2017-12-21T14:51:11.217Z,21.90
2017-12-21T14:53:38.676Z,23.03
2017-12-21T14:56:06.107Z,27.60
2017-12-21T14:58:33.518Z,24.80
2017-12-21T15:01:00.942Z,27.10
2017-12-21T15:03:28.367Z,31.53
2017-12-21T15:05:55.896Z,25.57
2017-12-21T15:08:24.067Z,25.03
2017-12-21T15:10:51.579Z,30.40
2017-12-21T15:13:18.987Z,27.73
2017-12-21T15:15:46.898Z,27.93
2017-12-21T15:18:15.089Z,31.47
2017-12-21T15:20:43.282Z,24.70
2017-12-21T15:23:10.727Z,28.97
2017-12-21T15:25:38.127Z,46.37
2017-12-21T15:28:05.597Z,31.50
2017-12-21T15:30:33.085Z,29.70
2017-12-21T15:33:00.506Z,30.53
2017-12-21T15:35:27.925Z,30.07
2017-12-21T15:37:55.354Z,32.00
2017-12-21T15:40:22.763Z,29.00
2017-12-21T15:42:50.209Z,35.07
2017-12-21T15:45:18.365Z,31.20
2017-12-21T15:47:46.552Z,33.70
2017-12-21T15:50:14.753Z,32.07
2017-12-21T15:52:42.178Z,33.67
2017-12-21T15:55:09.606Z,33.53
2017-12-21T15:57:37.170Z,29.93
2017-12-21T16:00:05.321Z,31.23
2017-12-21T16:02:33.526Z,27.40
2017-12-21T16:05:00.940Z,28.50
2017-12-21T16:07:28.355Z,30.30
2017-12-21T16:09:56.581Z,27.87
2017-12-21T16:12:23.999Z,29.47
2017-12-21T16:14:51.402Z,27.10
2017-12-21T16:17:18.814Z,32.17
2017-12-21T16:19:46.337Z,29.60
2017-12-21T16:22:13.810Z,29.93
2017-12-21T16:24:42.355Z,26.47
2017-12-21T16:27:09.874Z,30.60
2017-12-21T16:29:37.297Z,30.37
2017-12-21T16:32:04.705Z,29.33
2017-12-21T16:34:32.178Z,29.07
2017-12-21T16:36:59.586Z,29.20
2017-12-21T16:39:27.005Z,28.43
2017-12-21T16:41:54.421Z,30.47
2017-12-21T16:44:21.842Z,34.40
2017-12-21T16:46:49.257Z,29.73
2017-12-21T16:49:16.682Z,36.07
2017-12-21T16:51:44.099Z,32.70
2017-12-21T16:54:11.538Z,33.67
2017-12-21T16:56:39.007Z,35.70
2017-12-21T16:59:06.462Z,34.30
2017-12-21T17:01:33.870Z,37.10
2017-12-21T17:04:01.293Z,34.00
2017-12-21T17:06:28.741Z,35.13
2017-12-21T17:08:56.950Z,36.70
2017-12-21T17:11:24.414Z,34.77
2017-12-21T17:13:51.835Z,35.37
2017-12-21T17:16:19.251Z,37.23
2017-12-21T17:18:46.659Z,38.53
2017-12-21T17:21:14.097Z,34.07
2017-12-21T17:23:41.521Z,35.43
2017-12-21T17:26:09.713Z,38.00
2017-12-21T17:28:37.920Z,33.17
2017-12-21T17:31:05.427Z,39.37
2017-12-21T17:33:32.810Z,40.90
2017-12-21T17:36:00.451Z,40.63
2017-12-21T17:38:27.910Z,37.93
2017-12-21T17:40:55.481Z,43.60
2017-12-21T17:43:22.963Z,39.10
2017-12-21T17:45:50.371Z,45.23
2017-12-21T17:48:17.804Z,42.70
2017-12-21T17:50:45.368Z,39.43
2017-12-21T17:53:12.931Z,50.13
2017-12-21T17:55:40.410Z,42.87
2017-12-21T17:58:07.837Z,48.77
2017-12-21T18:00:35.246Z,42.83
2017-12-21T18:03:02.671Z,45.90
2017-12-21T18:05:30.901Z,53.90
2017-12-21T18:07:58.318Z,49.47
2017-12-21T18:10:26.550Z,53.43
2017-12-21T18:12:54.002Z,46.63
2017-12-21T18:15:21.425Z,50.50
2017-12-21T18:17:48.849Z,52.47
2017-12-21T18:20:16.262Z,59.73
2017-12-21T18:22:43.673Z,51.13
2017-12-21T18:25:11.090Z,53.33
2017-12-21T18:27:38.608Z,50.57
2017-12-21T18:30:06.024Z,54.50
2017-12-21T18:32:33.452Z,53.23
2017-12-21T18:35:00.857Z,58.70
2017-12-21T18:37:28.300Z,56.23
2017-12-21T18:39:55.714Z,48.57
2017-12-21T18:42:23.130Z,50.07
2017-12-21T18:44:50.565Z,55.07
2017-12-21T18:47:18.762Z,56.27
2017-12-21T18:49:46.178Z,53.77
2017-12-21T18:52:13.619Z,53.13
2017-12-21T18:54:41.042Z,58.70
2017-12-21T18:57:08.447Z,58.50
2017-12-21T18:59:35.861Z,56.03
2017-12-21T19:02:03.281Z,55.93
2017-12-21T19:04:30.718Z,60.97
2017-12-21T19:06:58.142Z,60.13
2017-12-21T19:09:25.590Z,62.07
2017-12-21T19:11:53.054Z,68.23
2017-12-21T19:14:20.503Z,66.10
2017-12-21T19:16:48.685Z,76.47
2017-12-21T19:19:16.866Z,63.80
2017-12-21T19:21:45.050Z,67.07
2017-12-21T19:24:13.234Z,68.10
2017-12-21T19:26:41.429Z,72.37
2017-12-21T19:29:09.618Z,69.77
2017-12-21T19:31:37.827Z,73.10
2017-12-21T19:34:05.233Z,74.73
2017-12-21T19:36:32.658Z,74.27
2017-12-21T19:39:00.131Z,78.27
2017-12-21T19:41:28.287Z,78.53
2017-12-21T19:43:56.461Z,83.50
2017-12-21T19:46:23.966Z,82.97
2017-12-21T19:48:51.457Z,82.50
2017-12-21T19:51:18.862Z,85.00
2017-12-21T19:53:46.274Z,82.63
2017-12-21T19:56:13.748Z,86.20
2017-12-21T19:58:41.173Z,73.13
2017-12-21T20:01:09.408Z,77.53
2017-12-21T20:03:36.815Z,79.17
2017-12-21T20:06:04.243Z,77.73
2017-12-21T20:08:31.654Z,78.30
2017-12-21T20:10:59.088Z,75.50
2017-12-21T20:13:26.509Z,75.37
2017-12-21T20:15:54.742Z,73.20
2017-12-21T20:18:22.914Z,73.83
2017-12-21T20:20:50.333Z,74.00
2017-12-21T20:23:17.747Z,76.37
2017-12-21T20:25:45.182Z,72.43
2017-12-21T20:28:13.406Z,73.80
2017-12-21T20:30:40.886Z,76.80
2017-12-21T20:33:08.394Z,76.33
2017-12-21T20:35:35.919Z,79.83
2017-12-21T20:38:03.410Z,77.87
2017-12-21T20:40:30.845Z,73.13
2017-12-21T20:42:58.271Z,70.30
2017-12-21T20:45:25.790Z,69.80
2017-12-21T20:47:53.204Z,70.37
2017-12-21T20:50:20.638Z,71.87
2017-12-21T20:52:48.051Z,68.33
2017-12-21T20:55:15.489Z,71.70
2017-12-21T20:57:42.913Z,72.47
2017-12-21T21:00:11.118Z,71.17
2017-12-21T21:02:38.562Z,72.30
2017-12-21T21:05:06.766Z,67.93
2017-12-21T21:07:34.182Z,70.87
2017-12-21T21:10:01.766Z,69.57
2017-12-21T21:12:29.286Z,77.90
2017-12-21T21:14:56.695Z,76.13
2017-12-21T21:17:24.131Z,71.10
2017-12-21T21:19:51.550Z,72.33
2017-12-21T21:22:19.783Z,77.10
2017-12-21T21:24:47.242Z,68.67
2017-12-21T21:27:14.696Z,76.83
2017-12-21T21:29:42.175Z,75.80
2017-12-21T21:32:09.613Z,77.47
2017-12-21T21:34:37.052Z,77.27
2017-12-21T21:37:04.471Z,74.07
2017-12-21T21:39:31.895Z,73.20
2017-12-21T21:41:59.339Z,66.03
2017-12-21T21:44:26.794Z,64.27
2017-12-21T21:46:54.276Z,67.40
2017-12-21T21:49:21.711Z,61.07
2017-12-21T21:51:49.211Z,59.53
2017-12-21T21:54:17.435Z,59.13
2017-12-21T21:56:44.868Z,63.30
2017-12-21T21:59:13.082Z,60.60
2017-12-21T22:01:40.527Z,58.07
2017-12-21T22:04:08.036Z,62.17
2017-12-21T22:06:35.525Z,63.40
2017-12-21T22:09:03.747Z,61.00
2017-12-21T22:11:31.198Z,67.97
2017-12-21T22:13:58.633Z,63.00
2017-12-21T22:16:26.927Z,67.73
2017-12-21T22:18:54.364Z,67.73
2017-12-21T22:21:21.770Z,57.73
2017-12-21T22:23:49.221Z,63.27
2017-12-21T22:26:16.681Z,56.67
2017-12-21T22:28:44.187Z,47.93
2017-12-21T22:31:12.378Z,63.10
2017-12-21T22:33:39.843Z,55.50
2017-12-21T22:36:07.342Z,51.97
2017-12-21T22:38:34.833Z,53.87
2017-12-21T22:41:02.289Z,53.10
2017-12-21T22:43:29.778Z,56.67
2017-12-21T22:45:57.188Z,60.20
2017-12-21T22:48:24.691Z,59.80
2017-12-21T22:50:52.120Z,56.90
2017-12-21T22:53:19.538Z,57.97
2017-12-21T22:55:46.977Z,57.40
2017-12-21T22:58:14.390Z,59.17
2017-12-21T23:00:41.914Z,63.53
2017-12-21T23:03:09.329Z,59.13
2017-12-21T23:05:36.738Z,65.60
2017-12-21T23:08:04.141Z,63.20
2017-12-21T23:10:31.571Z,61.77
2017-12-21T23:12:59.048Z,63.87
2017-12-21T23:15:26.466Z,71.40
2017-12-21T23:17:53.941Z,58.63
2017-12-21T23:20:21.357Z,73.83
2017-12-21T23:22:48.770Z,71.50
2017-12-21T23:25:16.186Z,78.33
2017-12-21T23:27:43.665Z,69.83
2017-12-21T23:30:11.137Z,68.77
2017-12-21T23:32:38.598Z,68.93
2017-12-21T23:35:06.067Z,70.50
2017-12-21T23:37:34.226Z,67.83
2017-12-21T23:40:02.406Z,71.60
2017-12-21T23:42:30.616Z,74.23
2017-12-21T23:44:58.040Z,74.80
2017-12-21T23:47:25.471Z,77.87
2017-12-21T23:49:52.893Z,82.17
2017-12-21T23:52:21.115Z,80.97
2017-12-21T23:54:49.298Z,83.53
2017-12-21T23:57:16.734Z,79.33
2017-12-21T23:59:44.234Z,82.13
